sensor_id;sensor_type;location;lat;lon;timestamp;P1;durP1;ratioP1;P2;durP2;ratioP2
23015;SDS011;11674;52.428;13.584;2023-08-07T00:01:18;4.03;;;3.20;;
23015;SDS011;11674;52.428;13.584;2023-08-07T00:06:25;5.18;;;3.25;;
23015;SDS011;11674;52.428;13.584;2023-08-07T00:11:32;10.35;;;4.95;;
23015;SDS011;11674;52.428;13.584;2023-08-07T00:16:39;4.60;;;2.92;;
23015;SDS011;11674;52.428;13.584;2023-08-07T00:21:47;6.53;;;3.28;;
23015;SDS011;11674;52.428;13.584;2023-08-07T00:26:54;9.02;;;2.60;;
23015;SDS011;11674;52.428;13.584;2023-08-07T00:32:01;7.32;;;2.72;;
23015;SDS011;11674;52.428;13.584;2023-08-07T00:37:08;3.33;;;2.30;;
23015;SDS011;11674;52.428;13.584;2023-08-07T00:42:15;4.97;;;2.58;;
23015;SDS011;11674;52.428;13.584;2023-08-07T00:47:22;13.23;;;7.25;;
23015;SDS011;11674;52.428;13.584;2023-08-07T00:52:29;4.00;;;2.88;;
23015;SDS011;11674;52.428;13.584;2023-08-07T00:57:36;11.32;;;6.57;;
23015;SDS011;11674;52.428;13.584;2023-08-07T01:02:44;4.57;;;3.28;;
23015;SDS011;11674;52.428;13.584;2023-08-07T01:07:51;5.65;;;2.92;;
23015;SDS011;11674;52.428;13.584;2023-08-07T01:13:03;4.30;;;2.75;;
23015;SDS011;11674;52.428;13.584;2023-08-07T01:18:15;5.45;;;3.30;;
23015;SDS011;11674;52.428;13.584;2023-08-07T01:23:22;7.18;;;3.50;;
23015;SDS011;11674;52.428;13.584;2023-08-07T01:28:36;7.13;;;3.40;;
23015;SDS011;11674;52.428;13.584;2023-08-07T01:33:51;5.18;;;3.03;;
23015;SDS011;11674;52.428;13.584;2023-08-07T01:39:04;6.07;;;3.40;;
23015;SDS011;11674;52.428;13.584;2023-08-07T01:44:12;5.95;;;3.17;;
23015;SDS011;11674;52.428;13.584;2023-08-07T01:49:19;5.35;;;3.28;;
23015;SDS011;11674;52.428;13.584;2023-08-07T01:54:26;6.05;;;3.35;;
23015;SDS011;11674;52.428;13.584;2023-08-07T01:59:33;6.82;;;3.72;;
23015;SDS011;11674;52.428;13.584;2023-08-07T02:04:40;3.58;;;3.00;;
23015;SDS011;11674;52.428;13.584;2023-08-07T02:09:48;10.43;;;3.28;;
23015;SDS011;11674;52.428;13.584;2023-08-07T02:14:55;9.45;;;4.63;;
23015;SDS011;11674;52.428;13.584;2023-08-07T02:20:02;6.43;;;4.18;;
23015;SDS011;11674;52.428;13.584;2023-08-07T02:25:09;7.32;;;4.20;;
23015;SDS011;11674;52.428;13.584;2023-08-07T02:30:16;7.75;;;3.75;;
23015;SDS011;11674;52.428;13.584;2023-08-07T02:35:23;6.95;;;3.67;;
23015;SDS011;11674;52.428;13.584;2023-08-07T02:40:30;6.05;;;3.88;;
23015;SDS011;11674;52.428;13.584;2023-08-07T02:45:37;5.70;;;3.47;;
23015;SDS011;11674;52.428;13.584;2023-08-07T02:50:44;8.80;;;4.15;;
23015;SDS011;11674;52.428;13.584;2023-08-07T02:55:51;6.88;;;4.03;;
23015;SDS011;11674;52.428;13.584;2023-08-07T03:01:05;7.70;;;4.43;;
23015;SDS011;11674;52.428;13.584;2023-08-07T03:06:12;10.88;;;4.70;;
23015;SDS011;11674;52.428;13.584;2023-08-07T03:11:19;9.93;;;4.88;;
23015;SDS011;11674;52.428;13.584;2023-08-07T03:16:26;10.50;;;4.28;;
23015;SDS011;11674;52.428;13.584;2023-08-07T03:21:33;11.15;;;4.97;;
23015;SDS011;11674;52.428;13.584;2023-08-07T03:26:40;8.82;;;5.00;;
23015;SDS011;11674;52.428;13.584;2023-08-07T03:31:47;6.20;;;4.55;;
23015;SDS011;11674;52.428;13.584;2023-08-07T03:36:54;8.68;;;5.28;;
23015;SDS011;11674;52.428;13.584;2023-08-07T03:42:01;9.05;;;4.68;;
23015;SDS011;11674;52.428;13.584;2023-08-07T03:47:08;9.85;;;4.75;;
23015;SDS011;11674;52.428;13.584;2023-08-07T03:52:15;11.40;;;4.63;;
23015;SDS011;11674;52.428;13.584;2023-08-07T03:57:22;9.07;;;4.95;;
23015;SDS011;11674;52.428;13.584;2023-08-07T04:02:29;13.18;;;5.50;;
23015;SDS011;11674;52.428;13.584;2023-08-07T04:07:36;15.55;;;5.72;;
23015;SDS011;11674;52.428;13.584;2023-08-07T04:12:43;7.93;;;4.78;;
23015;SDS011;11674;52.428;13.584;2023-08-07T04:17:50;6.70;;;4.13;;
23015;SDS011;11674;52.428;13.584;2023-08-07T04:22:57;8.00;;;4.50;;
23015;SDS011;11674;52.428;13.584;2023-08-07T04:28:04;9.32;;;4.70;;
23015;SDS011;11674;52.428;13.584;2023-08-07T04:33:11;11.75;;;3.65;;
23015;SDS011;11674;52.428;13.584;2023-08-07T04:38:19;7.15;;;4.80;;
23015;SDS011;11674;52.428;13.584;2023-08-07T04:43:26;10.13;;;4.50;;
23015;SDS011;11674;52.428;13.584;2023-08-07T04:48:33;9.90;;;4.00;;
23015;SDS011;11674;52.428;13.584;2023-08-07T04:53:40;6.78;;;3.83;;
23015;SDS011;11674;52.428;13.584;2023-08-07T04:58:47;4.70;;;3.33;;
23015;SDS011;11674;52.428;13.584;2023-08-07T05:03:54;6.63;;;3.90;;
23015;SDS011;11674;52.428;13.584;2023-08-07T05:09:02;7.97;;;3.88;;
23015;SDS011;11674;52.428;13.584;2023-08-07T05:14:09;6.45;;;3.60;;
23015;SDS011;11674;52.428;13.584;2023-08-07T05:19:16;5.40;;;2.65;;
23015;SDS011;11674;52.428;13.584;2023-08-07T05:24:23;7.18;;;3.42;;
23015;SDS011;11674;52.428;13.584;2023-08-07T05:29:30;6.10;;;3.30;;
23015;SDS011;11674;52.428;13.584;2023-08-07T05:34:37;6.95;;;3.13;;
23015;SDS011;11674;52.428;13.584;2023-08-07T05:39:46;10.05;;;3.22;;
23015;SDS011;11674;52.428;13.584;2023-08-07T05:44:53;5.45;;;2.13;;
23015;SDS011;11674;52.428;13.584;2023-08-07T05:50:00;6.68;;;2.80;;
23015;SDS011;11674;52.428;13.584;2023-08-07T05:55:07;5.15;;;2.80;;
23015;SDS011;11674;52.428;13.584;2023-08-07T06:00:14;4.85;;;2.55;;
23015;SDS011;11674;52.428;13.584;2023-08-07T06:05:21;6.05;;;2.97;;
23015;SDS011;11674;52.428;13.584;2023-08-07T06:10:28;4.97;;;2.20;;
23015;SDS011;11674;52.428;13.584;2023-08-07T06:15:35;5.05;;;2.60;;
23015;SDS011;11674;52.428;13.584;2023-08-07T06:20:42;7.32;;;2.78;;
23015;SDS011;11674;52.428;13.584;2023-08-07T06:25:49;12.27;;;2.95;;
23015;SDS011;11674;52.428;13.584;2023-08-07T06:31:06;5.05;;;2.78;;
23015;SDS011;11674;52.428;13.584;2023-08-07T06:36:13;4.15;;;2.67;;
23015;SDS011;11674;52.428;13.584;2023-08-07T06:41:20;4.63;;;2.17;;
23015;SDS011;11674;52.428;13.584;2023-08-07T06:46:27;5.65;;;1.98;;
23015;SDS011;11674;52.428;13.584;2023-08-07T06:51:34;5.72;;;1.65;;
23015;SDS011;11674;52.428;13.584;2023-08-07T06:56:41;5.15;;;1.85;;
23015;SDS011;11674;52.428;13.584;2023-08-07T07:01:48;3.45;;;1.55;;
23015;SDS011;11674;52.428;13.584;2023-08-07T07:06:55;5.47;;;1.73;;
23015;SDS011;11674;52.428;13.584;2023-08-07T07:12:02;1.83;;;1.58;;
23015;SDS011;11674;52.428;13.584;2023-08-07T07:17:13;2.30;;;1.50;;
23015;SDS011;11674;52.428;13.584;2023-08-07T07:22:19;2.10;;;1.38;;
23015;SDS011;11674;52.428;13.584;2023-08-07T07:27:26;6.13;;;1.50;;
23015;SDS011;11674;52.428;13.584;2023-08-07T07:32:39;3.83;;;1.98;;
23015;SDS011;11674;52.428;13.584;2023-08-07T07:37:46;4.22;;;1.70;;
23015;SDS011;11674;52.428;13.584;2023-08-07T07:42:53;7.53;;;1.58;;
23015;SDS011;11674;52.428;13.584;2023-08-07T07:48:00;3.72;;;1.50;;
23015;SDS011;11674;52.428;13.584;2023-08-07T07:53:07;4.18;;;1.63;;
23015;SDS011;11674;52.428;13.584;2023-08-07T07:58:14;4.43;;;1.63;;
23015;SDS011;11674;52.428;13.584;2023-08-07T08:03:21;2.70;;;1.23;;
23015;SDS011;11674;52.428;13.584;2023-08-07T08:08:28;3.40;;;1.48;;
23015;SDS011;11674;52.428;13.584;2023-08-07T08:13:35;3.53;;;1.48;;
23015;SDS011;11674;52.428;13.584;2023-08-07T08:18:42;4.53;;;1.85;;
23015;SDS011;11674;52.428;13.584;2023-08-07T08:23:49;4.53;;;1.77;;
23015;SDS011;11674;52.428;13.584;2023-08-07T08:28:56;4.82;;;1.55;;
23015;SDS011;11674;52.428;13.584;2023-08-07T08:34:03;3.95;;;1.73;;
23015;SDS011;11674;52.428;13.584;2023-08-07T08:39:10;3.63;;;1.50;;
23015;SDS011;11674;52.428;13.584;2023-08-07T08:44:17;6.22;;;1.67;;
23015;SDS011;11674;52.428;13.584;2023-08-07T08:49:28;7.22;;;2.10;;
23015;SDS011;11674;52.428;13.584;2023-08-07T08:54:40;5.13;;;1.45;;
23015;SDS011;11674;52.428;13.584;2023-08-07T08:59:47;5.63;;;2.28;;
23015;SDS011;11674;52.428;13.584;2023-08-07T09:04:54;5.55;;;1.50;;
23015;SDS011;11674;52.428;13.584;2023-08-07T09:10:02;3.78;;;2.10;;
23015;SDS011;11674;52.428;13.584;2023-08-07T09:15:10;6.45;;;1.67;;
23015;SDS011;11674;52.428;13.584;2023-08-07T09:20:17;7.45;;;2.25;;
23015;SDS011;11674;52.428;13.584;2023-08-07T09:25:30;3.15;;;1.88;;
23015;SDS011;11674;52.428;13.584;2023-08-07T09:30:39;2.67;;;1.60;;
23015;SDS011;11674;52.428;13.584;2023-08-07T09:35:48;6.15;;;2.22;;
23015;SDS011;11674;52.428;13.584;2023-08-07T09:40:58;5.93;;;2.40;;
23015;SDS011;11674;52.428;13.584;2023-08-07T09:46:06;9.13;;;2.57;;
23015;SDS011;11674;52.428;13.584;2023-08-07T09:51:14;3.22;;;2.38;;
23015;SDS011;11674;52.428;13.584;2023-08-07T09:56:21;7.95;;;2.47;;
23015;SDS011;11674;52.428;13.584;2023-08-07T10:01:28;5.60;;;3.47;;
23015;SDS011;11674;52.428;13.584;2023-08-07T10:06:35;6.45;;;2.15;;
23015;SDS011;11674;52.428;13.584;2023-08-07T10:11:42;3.53;;;1.98;;
23015;SDS011;11674;52.428;13.584;2023-08-07T10:16:49;4.47;;;1.70;;
23015;SDS011;11674;52.428;13.584;2023-08-07T10:21:56;2.63;;;1.27;;
23015;SDS011;11674;52.428;13.584;2023-08-07T10:27:04;5.75;;;1.67;;
23015;SDS011;11674;52.428;13.584;2023-08-07T10:32:14;4.35;;;1.25;;
23015;SDS011;11674;52.428;13.584;2023-08-07T10:37:39;3.28;;;1.20;;
23015;SDS011;11674;52.428;13.584;2023-08-07T10:42:58;2.97;;;1.30;;
23015;SDS011;11674;52.428;13.584;2023-08-07T10:48:10;1.92;;;1.35;;
23015;SDS011;11674;52.428;13.584;2023-08-07T10:53:31;2.65;;;1.40;;
23015;SDS011;11674;52.428;13.584;2023-08-07T10:59:11;1.30;;;0.93;;
23015;SDS011;11674;52.428;13.584;2023-08-07T11:04:18;4.88;;;1.38;;
23015;SDS011;11674;52.428;13.584;2023-08-07T11:09:25;2.78;;;1.10;;
23015;SDS011;11674;52.428;13.584;2023-08-07T11:14:33;3.08;;;1.05;;
23015;SDS011;11674;52.428;13.584;2023-08-07T11:19:40;2.60;;;0.98;;
23015;SDS011;11674;52.428;13.584;2023-08-07T11:24:49;1.88;;;1.02;;
23015;SDS011;11674;52.428;13.584;2023-08-07T11:29:57;2.78;;;1.27;;
23015;SDS011;11674;52.428;13.584;2023-08-07T11:35:05;3.88;;;1.40;;
23015;SDS011;11674;52.428;13.584;2023-08-07T11:40:12;3.22;;;1.27;;
23015;SDS011;11674;52.428;13.584;2023-08-07T11:45:19;2.50;;;1.05;;
23015;SDS011;11674;52.428;13.584;2023-08-07T11:50:29;2.15;;;1.17;;
23015;SDS011;11674;52.428;13.584;2023-08-07T11:55:36;8.15;;;1.33;;
23015;SDS011;11674;52.428;13.584;2023-08-07T12:00:43;1.20;;;0.80;;
23015;SDS011;11674;52.428;13.584;2023-08-07T12:05:50;5.20;;;1.30;;
23015;SDS011;11674;52.428;13.584;2023-08-07T12:10:57;2.92;;;1.20;;
23015;SDS011;11674;52.428;13.584;2023-08-07T12:16:04;3.85;;;1.48;;
23015;SDS011;11674;52.428;13.584;2023-08-07T12:21:13;3.88;;;1.42;;
23015;SDS011;11674;52.428;13.584;2023-08-07T12:26:24;4.47;;;1.05;;
23015;SDS011;11674;52.428;13.584;2023-08-07T12:31:31;1.83;;;1.15;;
23015;SDS011;11674;52.428;13.584;2023-08-07T12:36:38;4.28;;;1.98;;
23015;SDS011;11674;52.428;13.584;2023-08-07T12:41:45;4.68;;;1.25;;
23015;SDS011;11674;52.428;13.584;2023-08-07T12:46:52;2.08;;;1.20;;
23015;SDS011;11674;52.428;13.584;2023-08-07T12:51:59;1.85;;;1.30;;
23015;SDS011;11674;52.428;13.584;2023-08-07T12:57:06;5.28;;;1.00;;
23015;SDS011;11674;52.428;13.584;2023-08-07T13:02:13;5.32;;;1.63;;
23015;SDS011;11674;52.428;13.584;2023-08-07T13:07:27;3.65;;;1.38;;
23015;SDS011;11674;52.428;13.584;2023-08-07T13:12:35;3.95;;;1.60;;
23015;SDS011;11674;52.428;13.584;2023-08-07T13:17:45;8.23;;;1.45;;
23015;SDS011;11674;52.428;13.584;2023-08-07T13:22:52;2.55;;;0.95;;
23015;SDS011;11674;52.428;13.584;2023-08-07T13:28:00;3.33;;;1.15;;
23015;SDS011;11674;52.428;13.584;2023-08-07T13:33:10;6.22;;;1.83;;
23015;SDS011;11674;52.428;13.584;2023-08-07T13:38:24;4.40;;;1.75;;
23015;SDS011;11674;52.428;13.584;2023-08-07T13:43:31;7.50;;;2.20;;
23015;SDS011;11674;52.428;13.584;2023-08-07T13:48:38;4.68;;;2.08;;
23015;SDS011;11674;52.428;13.584;2023-08-07T13:53:48;8.45;;;2.03;;
23015;SDS011;11674;52.428;13.584;2023-08-07T13:58:58;9.52;;;2.30;;
23015;SDS011;11674;52.428;13.584;2023-08-07T14:04:05;6.38;;;1.52;;
23015;SDS011;11674;52.428;13.584;2023-08-07T14:09:12;8.23;;;2.35;;
23015;SDS011;11674;52.428;13.584;2023-08-07T14:14:19;12.60;;;3.55;;
23015;SDS011;11674;52.428;13.584;2023-08-07T14:19:26;4.25;;;1.75;;
23015;SDS011;11674;52.428;13.584;2023-08-07T14:24:33;6.50;;;1.75;;
23015;SDS011;11674;52.428;13.584;2023-08-07T14:29:40;5.97;;;1.77;;
23015;SDS011;11674;52.428;13.584;2023-08-07T14:34:47;7.50;;;1.77;;
23015;SDS011;11674;52.428;13.584;2023-08-07T14:39:54;7.13;;;1.92;;
23015;SDS011;11674;52.428;13.584;2023-08-07T14:45:01;8.02;;;1.90;;
23015;SDS011;11674;52.428;13.584;2023-08-07T14:50:18;4.35;;;1.50;;
23015;SDS011;11674;52.428;13.584;2023-08-07T14:55:32;4.57;;;1.80;;
23015;SDS011;11674;52.428;13.584;2023-08-07T15:00:39;8.07;;;2.28;;
23015;SDS011;11674;52.428;13.584;2023-08-07T15:05:46;4.40;;;1.63;;
23015;SDS011;11674;52.428;13.584;2023-08-07T15:10:53;6.32;;;1.90;;
23015;SDS011;11674;52.428;13.584;2023-08-07T15:16:00;7.75;;;2.00;;
23015;SDS011;11674;52.428;13.584;2023-08-07T15:21:07;8.63;;;1.58;;
23015;SDS011;11674;52.428;13.584;2023-08-07T15:26:14;6.35;;;1.75;;
23015;SDS011;11674;52.428;13.584;2023-08-07T15:31:21;5.90;;;1.85;;
23015;SDS011;11674;52.428;13.584;2023-08-07T15:36:28;5.75;;;1.90;;
23015;SDS011;11674;52.428;13.584;2023-08-07T15:41:35;6.57;;;1.88;;
23015;SDS011;11674;52.428;13.584;2023-08-07T15:46:42;4.45;;;1.73;;
23015;SDS011;11674;52.428;13.584;2023-08-07T15:51:50;7.13;;;1.98;;
23015;SDS011;11674;52.428;13.584;2023-08-07T15:56:57;4.60;;;1.60;;
23015;SDS011;11674;52.428;13.584;2023-08-07T16:02:04;3.42;;;1.30;;
23015;SDS011;11674;52.428;13.584;2023-08-07T16:07:11;9.13;;;2.17;;
23015;SDS011;11674;52.428;13.584;2023-08-07T16:12:18;4.15;;;1.27;;
23015;SDS011;11674;52.428;13.584;2023-08-07T16:17:25;8.32;;;2.00;;
23015;SDS011;11674;52.428;13.584;2023-08-07T16:22:32;6.07;;;1.80;;
23015;SDS011;11674;52.428;13.584;2023-08-07T16:27:39;5.50;;;1.42;;
23015;SDS011;11674;52.428;13.584;2023-08-07T16:32:46;5.53;;;1.75;;
23015;SDS011;11674;52.428;13.584;2023-08-07T16:37:53;4.93;;;1.33;;
23015;SDS011;11674;52.428;13.584;2023-08-07T16:43:01;5.60;;;1.67;;
23015;SDS011;11674;52.428;13.584;2023-08-07T16:48:08;3.92;;;1.58;;
23015;SDS011;11674;52.428;13.584;2023-08-07T16:53:15;6.60;;;1.77;;
23015;SDS011;11674;52.428;13.584;2023-08-07T16:58:22;1.55;;;1.00;;
23015;SDS011;11674;52.428;13.584;2023-08-07T17:03:29;5.15;;;1.80;;
23015;SDS011;11674;52.428;13.584;2023-08-07T17:08:37;6.53;;;1.92;;
23015;SDS011;11674;52.428;13.584;2023-08-07T17:13:43;5.15;;;1.48;;
23015;SDS011;11674;52.428;13.584;2023-08-07T17:18:50;6.35;;;1.88;;
23015;SDS011;11674;52.428;13.584;2023-08-07T17:23:57;6.40;;;2.42;;
23015;SDS011;11674;52.428;13.584;2023-08-07T17:29:04;5.57;;;1.60;;
23015;SDS011;11674;52.428;13.584;2023-08-07T17:34:11;5.63;;;1.58;;
23015;SDS011;11674;52.428;13.584;2023-08-07T17:39:18;3.78;;;1.20;;
23015;SDS011;11674;52.428;13.584;2023-08-07T17:44:25;4.90;;;1.77;;
23015;SDS011;11674;52.428;13.584;2023-08-07T17:49:33;6.65;;;1.60;;
23015;SDS011;11674;52.428;13.584;2023-08-07T17:54:40;3.53;;;1.83;;
23015;SDS011;11674;52.428;13.584;2023-08-07T17:59:47;6.63;;;1.55;;
23015;SDS011;11674;52.428;13.584;2023-08-07T18:04:54;4.07;;;1.70;;
23015;SDS011;11674;52.428;13.584;2023-08-07T18:10:02;4.63;;;1.70;;
23015;SDS011;11674;52.428;13.584;2023-08-07T18:15:11;10.48;;;1.77;;
23015;SDS011;11674;52.428;13.584;2023-08-07T18:20:17;7.82;;;1.88;;
23015;SDS011;11674;52.428;13.584;2023-08-07T18:25:24;11.32;;;1.85;;
23015;SDS011;11674;52.428;13.584;2023-08-07T18:30:31;6.90;;;2.05;;
23015;SDS011;11674;52.428;13.584;2023-08-07T18:35:38;4.80;;;1.65;;
23015;SDS011;11674;52.428;13.584;2023-08-07T18:40:45;6.95;;;1.60;;
23015;SDS011;11674;52.428;13.584;2023-08-07T18:45:52;3.47;;;1.42;;
23015;SDS011;11674;52.428;13.584;2023-08-07T18:50:59;9.82;;;1.80;;
23015;SDS011;11674;52.428;13.584;2023-08-07T18:56:06;4.78;;;1.48;;
23015;SDS011;11674;52.428;13.584;2023-08-07T19:01:13;4.45;;;1.42;;
23015;SDS011;11674;52.428;13.584;2023-08-07T19:06:20;3.80;;;1.13;;
23015;SDS011;11674;52.428;13.584;2023-08-07T19:11:27;6.90;;;2.00;;
23015;SDS011;11674;52.428;13.584;2023-08-07T19:16:34;5.35;;;1.70;;
23015;SDS011;11674;52.428;13.584;2023-08-07T19:21:41;7.22;;;1.85;;
23015;SDS011;11674;52.428;13.584;2023-08-07T19:26:48;5.20;;;1.30;;
23015;SDS011;11674;52.428;13.584;2023-08-07T19:31:55;8.38;;;0.80;;
23015;SDS011;11674;52.428;13.584;2023-08-07T19:37:02;4.32;;;1.50;;
23015;SDS011;11674;52.428;13.584;2023-08-07T19:42:09;6.13;;;1.60;;
23015;SDS011;11674;52.428;13.584;2023-08-07T19:47:16;2.05;;;1.15;;
23015;SDS011;11674;52.428;13.584;2023-08-07T19:52:23;12.45;;;1.65;;
23015;SDS011;11674;52.428;13.584;2023-08-07T19:57:30;5.10;;;1.50;;
23015;SDS011;11674;52.428;13.584;2023-08-07T20:02:37;6.60;;;1.55;;
23015;SDS011;11674;52.428;13.584;2023-08-07T20:07:44;7.32;;;1.98;;
23015;SDS011;11674;52.428;13.584;2023-08-07T20:12:51;7.20;;;2.45;;
23015;SDS011;11674;52.428;13.584;2023-08-07T20:17:58;6.72;;;1.95;;
23015;SDS011;11674;52.428;13.584;2023-08-07T20:23:05;2.80;;;1.40;;
23015;SDS011;11674;52.428;13.584;2023-08-07T20:28:12;3.80;;;1.55;;
23015;SDS011;11674;52.428;13.584;2023-08-07T20:33:19;5.45;;;1.50;;
23015;SDS011;11674;52.428;13.584;2023-08-07T20:38:33;2.58;;;1.27;;
23015;SDS011;11674;52.428;13.584;2023-08-07T20:43:40;5.97;;;1.38;;
23015;SDS011;11674;52.428;13.584;2023-08-07T20:48:47;5.07;;;1.75;;
23015;SDS011;11674;52.428;13.584;2023-08-07T20:53:54;8.00;;;1.48;;
23015;SDS011;11674;52.428;13.584;2023-08-07T20:59:01;7.57;;;1.60;;
23015;SDS011;11674;52.428;13.584;2023-08-07T21:04:09;2.75;;;1.25;;
23015;SDS011;11674;52.428;13.584;2023-08-07T21:09:16;4.57;;;1.35;;
23015;SDS011;11674;52.428;13.584;2023-08-07T21:14:23;5.05;;;1.80;;
23015;SDS011;11674;52.428;13.584;2023-08-07T21:19:30;9.68;;;1.90;;
23015;SDS011;11674;52.428;13.584;2023-08-07T21:24:38;4.20;;;1.65;;
23015;SDS011;11674;52.428;13.584;2023-08-07T21:29:45;5.05;;;1.67;;
23015;SDS011;11674;52.428;13.584;2023-08-07T21:34:52;5.15;;;1.90;;
23015;SDS011;11674;52.428;13.584;2023-08-07T21:39:59;5.22;;;1.90;;
23015;SDS011;11674;52.428;13.584;2023-08-07T21:45:07;2.97;;;1.65;;
23015;SDS011;11674;52.428;13.584;2023-08-07T21:50:14;9.60;;;1.70;;
23015;SDS011;11674;52.428;13.584;2023-08-07T21:55:21;6.28;;;1.65;;
23015;SDS011;11674;52.428;13.584;2023-08-07T22:00:27;4.57;;;1.42;;
23015;SDS011;11674;52.428;13.584;2023-08-07T22:05:35;6.13;;;1.75;;
23015;SDS011;11674;52.428;13.584;2023-08-07T22:10:42;4.60;;;1.90;;
23015;SDS011;11674;52.428;13.584;2023-08-07T22:15:49;10.05;;;1.80;;
23015;SDS011;11674;52.428;13.584;2023-08-07T22:20:56;3.78;;;1.30;;
23015;SDS011;11674;52.428;13.584;2023-08-07T22:26:03;3.70;;;0.90;;
23015;SDS011;11674;52.428;13.584;2023-08-07T22:31:10;5.88;;;1.73;;
23015;SDS011;11674;52.428;13.584;2023-08-07T22:36:17;2.90;;;1.13;;
23015;SDS011;11674;52.428;13.584;2023-08-07T22:41:24;7.78;;;1.80;;
23015;SDS011;11674;52.428;13.584;2023-08-07T22:46:31;7.18;;;1.67;;
23015;SDS011;11674;52.428;13.584;2023-08-07T22:51:38;5.57;;;1.70;;
23015;SDS011;11674;52.428;13.584;2023-08-07T22:56:45;5.05;;;1.20;;
23015;SDS011;11674;52.428;13.584;2023-08-07T23:01:52;7.45;;;1.80;;
23015;SDS011;11674;52.428;13.584;2023-08-07T23:06:59;4.30;;;1.38;;
23015;SDS011;11674;52.428;13.584;2023-08-07T23:12:06;5.72;;;1.58;;
23015;SDS011;11674;52.428;13.584;2023-08-07T23:17:13;3.75;;;1.10;;
23015;SDS011;11674;52.428;13.584;2023-08-07T23:22:20;3.03;;;1.65;;
23015;SDS011;11674;52.428;13.584;2023-08-07T23:27:27;8.02;;;1.63;;
23015;SDS011;11674;52.428;13.584;2023-08-07T23:32:34;3.30;;;1.45;;
23015;SDS011;11674;52.428;13.584;2023-08-07T23:37:41;5.72;;;1.40;;
